Stoystown, PA (15563)

9:11 AM EDT on September 19, 2014 (GMT -0400)
Ashtola | Change Station
CLOSE
Current Station
Personal Weather Station
Location: Windber, PA
Elevation: 2085 ft
Nearby Weather Stations

Elev 2085 ft 40.20 °N, 78.80 °W | Updated 4 minutes ago

Partly Cloudy
Partly Cloudy
52.3 °F
Feels Like 52.3 °F
N
0.0
Wind Variable Wind from NNE
Gusts 0.0 mph

Today
High -- | Low -- °F
--% Chance of Precip.
Yesterday
High -- | Low -- °F
Precip. -- in
7:00 AM 7:17 PM
Waning Crescent, 19% visible
Pressure 30.25 in
Visibility 3.0 miles
Clouds Few 300 ft
Few 5000 ft
Dew Point 50 °F
Humidity 91%
Rainfall 0.00 in
Snow Depth Not available.
UV 1 out of 12
Pollen 3.70 out of 12
Ozone Good
PM2.5 Moderate
Flu Activity Not available.
SPECI KJST 191210Z AUTO 05005KT 3SM BR FEW003 FEW050 09/08 A3025 RMK AO2 T00890078

More Conditions Fewer Conditions

Pressure 30.25 in
Visibility 3.0 miles
Clouds Few 300 ft
Few 5000 ft
Dew Point 50 °F
Humidity 91%
Rainfall 0.00 in
Snow Depth Not available.
UV 1 out of 12
Pollen 3.70 out of 12
Ozone Good
PM2.5 Moderate
Flu Activity Not available.
SPECI KJST 191210Z AUTO 05005KT 3SM BR FEW003 FEW050 09/08 A3025 RMK AO2 T00890078

More Conditions Fewer Conditions

Nowcast | as of 8:27 am EDT on September 19, 2014

Patchy fog...some of it locally dense...will burn off by 10 am. Persons traveling this morning should use extra caution if you encounter fog. Be alert for sudden reductions to visibility and allow for extra travel time this morning.

×

10-Day Weather Forecast

Almanac

Astronomy

Sep. 19, 2014 Rise Set
Actual Time 7:00 AM EDT 7:17 PM EDT
Civil Twilight 6:32 AM EDT 7:44 PM EDT
Nautical Twilight 6:00 AM EDT 8:16 PM EDT
Astronomical Twilight 5:28 AM EDT 8:48 PM EDT
Moon 2:43 AM EDT 4:45 PM EDT
Length of Visible Light 13h 11m
Length of Day
12h 17m
Tomorrow will be 2m 37s shorter.
Waning Crescent, 19% of the Moon is Illuminated
Today
Waning Crescent
Sep 24
New
Oct 1
First Quarter
Oct 8
Full
Oct 15
Last Quarter

Today's Extremes

State Highs State Lows

Community

WunderPhotos

Upload Photos

1,754,606 photos uploaded!

WunderBlogs® & News

Nearby

Air Quality

  Air Quality AQ Index Pollutant
Yesterday Moderate
PM2.5
Yesterday Good
OZONE
Current Moderate
PM2.5
Current Good
OZONE
Friday Moderate
PM2.5
Saturday Moderate
PM2.5

Snow Depth

Station Depth Elevation
No new snow has been reported.

Earthquake Activity

City Distance Mag. Time & Date
No recent earthquake activity has been reported nearby.
Minimum magnitude displayed is 2.5.

Coastal Water Temperatures

Place Temperature
No Stations Reporting

Nearby Weather Stations